createdAt,value
2019-02-03T00:00:37.223Z,66.97
2019-02-03T00:03:27.420Z,61.90
2019-02-03T00:06:18.454Z,75.83
2019-02-03T00:09:15.680Z,65.17
2019-02-03T00:12:05.559Z,74.05
2019-02-03T00:14:55.351Z,62.70
2019-02-03T00:17:45.239Z,61.18
2019-02-03T00:20:34.577Z,76.00
2019-02-03T00:23:24.697Z,72.35
2019-02-03T00:26:18.044Z,72.08
2019-02-03T00:29:08.148Z,64.72
2019-02-03T00:31:58.019Z,57.95
2019-02-03T00:34:48.231Z,57.60
2019-02-03T00:37:37.905Z,70.57
2019-02-03T00:40:28.005Z,53.58
2019-02-03T00:43:18.137Z,61.90
2019-02-03T00:46:08.158Z,53.20
2019-02-03T00:48:58.162Z,67.10
2019-02-03T00:51:48.371Z,61.83
2019-02-03T00:54:39.984Z,55.95
2019-02-03T00:57:32.328Z,53.83
2019-02-03T01:00:21.811Z,63.90
2019-02-03T01:03:12.912Z,61.45
2019-02-03T01:06:03.070Z,65.97
2019-02-03T01:09:00.775Z,51.85
2019-02-03T01:11:52.825Z,64.62
2019-02-03T01:14:44.391Z,51.68
2019-02-03T01:17:35.270Z,60.92
2019-02-03T01:20:25.892Z,62.45
2019-02-03T01:23:18.342Z,56.45
2019-02-03T01:26:09.473Z,58.38
2019-02-03T01:29:07.109Z,49.27
2019-02-03T01:31:59.582Z,54.08
2019-02-03T01:34:51.610Z,52.65
2019-02-03T01:37:42.400Z,55.98
2019-02-03T01:40:32.840Z,56.20
2019-02-03T01:43:23.519Z,51.45
2019-02-03T01:46:17.147Z,49.83
2019-02-03T01:49:09.318Z,43.42
2019-02-03T01:52:00.213Z,52.45
2019-02-03T01:54:51.340Z,58.95
2019-02-03T01:57:42.226Z,46.05
2019-02-03T02:00:32.945Z,50.40
2019-02-03T02:03:23.246Z,62.55
2019-02-03T02:06:17.335Z,61.60
2019-02-03T02:09:12.786Z,49.03
2019-02-03T02:12:03.570Z,44.40
2019-02-03T02:14:53.602Z,46.45
2019-02-03T02:17:43.509Z,47.80
2019-02-03T02:20:33.833Z,51.10
2019-02-03T02:23:24.422Z,57.50
2019-02-03T02:26:15.058Z,57.67
2019-02-03T02:29:07.668Z,45.48
2019-02-03T02:32:02.258Z,48.70
2019-02-03T02:34:55.328Z,53.55
2019-02-03T02:37:45.697Z,46.13
2019-02-03T02:40:36.151Z,49.20
2019-02-03T02:43:27.797Z,49.00
2019-02-03T02:46:18.154Z,50.00
2019-02-03T02:49:08.393Z,46.90
2019-02-03T02:55:41.814Z,47.30
2019-02-03T02:58:31.389Z,45.55
2019-02-03T03:01:20.919Z,47.98
2019-02-03T03:04:10.954Z,44.75
2019-02-03T03:07:01.099Z,50.55
2019-02-03T03:09:50.888Z,52.80
2019-02-03T03:12:40.662Z,46.58
2019-02-03T03:15:30.642Z,43.20
2019-02-03T03:18:20.651Z,49.98
2019-02-03T03:21:10.429Z,48.45
2019-02-03T03:24:00.199Z,47.13
2019-02-03T03:26:50.101Z,48.68
2019-02-03T03:29:44.804Z,43.20
2019-02-03T03:32:35.096Z,54.45
2019-02-03T03:35:25.619Z,47.13
2019-02-03T03:38:16.093Z,39.42
2019-02-03T03:41:06.131Z,47.00
2019-02-03T03:43:56.841Z,39.23
2019-02-03T03:46:47.582Z,48.28
2019-02-03T03:49:37.832Z,51.83
2019-02-03T03:52:28.682Z,46.75
2019-02-03T03:55:19.321Z,43.98
2019-02-03T03:58:09.525Z,46.60
2019-02-03T04:00:59.410Z,42.27
2019-02-03T04:03:51.074Z,57.38
2019-02-03T04:06:44.899Z,51.40
2019-02-03T04:09:38.823Z,44.67
2019-02-03T04:12:31.007Z,42.90
2019-02-03T04:15:22.316Z,44.05
2019-02-03T04:18:15.194Z,43.17
2019-02-03T04:21:09.599Z,43.28
2019-02-03T04:24:00.193Z,40.55
2019-02-03T04:26:52.733Z,42.70
2019-02-03T04:29:42.703Z,43.42
2019-02-03T04:32:35.898Z,37.30
2019-02-03T04:35:31.890Z,45.50
2019-02-03T04:38:22.091Z,33.38
2019-02-03T04:41:12.724Z,43.75
2019-02-03T04:44:05.460Z,38.48
2019-02-03T04:46:56.025Z,41.37
2019-02-03T04:49:46.664Z,41.83
2019-02-03T04:52:37.126Z,40.48
2019-02-03T04:55:29.043Z,37.00
2019-02-03T04:58:19.513Z,44.90
2019-02-03T05:01:10.354Z,41.68
2019-02-03T05:04:02.078Z,44.25
2019-02-03T05:06:54.792Z,33.88
2019-02-03T05:09:49.273Z,43.28
2019-02-03T05:12:41.282Z,39.70
2019-02-03T05:15:32.507Z,43.52
2019-02-03T05:18:23.332Z,47.10
2019-02-03T05:21:13.874Z,54.23
2019-02-03T05:24:09.572Z,38.90
2019-02-03T05:27:01.849Z,38.23
2019-02-03T05:29:52.759Z,40.48
2019-02-03T05:32:43.736Z,38.58
2019-02-03T05:35:34.832Z,35.75
2019-02-03T05:38:25.644Z,37.63
2019-02-03T05:41:16.440Z,38.13
2019-02-03T05:44:07.290Z,38.00
2019-02-03T05:46:58.309Z,36.50
2019-02-03T05:49:49.641Z,40.98
2019-02-03T05:52:39.965Z,37.58
2019-02-03T05:55:30.640Z,40.25
2019-02-03T05:58:21.784Z,37.90
2019-02-03T06:01:12.319Z,36.20
2019-02-03T06:04:02.484Z,36.10
2019-02-03T06:06:53.392Z,35.40
2019-02-03T06:09:43.749Z,40.60
2019-02-03T06:12:33.913Z,34.38
2019-02-03T06:15:24.059Z,42.67
2019-02-03T06:18:13.732Z,34.78
2019-02-03T06:21:05.741Z,41.33
2019-02-03T06:23:55.942Z,37.63
2019-02-03T06:26:46.062Z,38.23
2019-02-03T06:29:36.191Z,32.30
2019-02-03T06:32:27.049Z,33.55
2019-02-03T06:35:20.719Z,35.33
2019-02-03T06:38:11.399Z,29.35
2019-02-03T06:41:02.123Z,33.45
2019-02-03T06:43:52.977Z,33.78
2019-02-03T06:47:02.137Z,30.20
2019-02-03T06:49:56.641Z,30.08
2019-02-03T06:52:46.284Z,31.15
2019-02-03T06:55:36.178Z,37.50
2019-02-03T06:58:26.581Z,34.92
2019-02-03T07:01:27.102Z,30.40
2019-02-03T07:04:17.518Z,39.73
2019-02-03T07:07:07.398Z,29.55
2019-02-03T07:10:00.687Z,40.65
2019-02-03T07:12:52.578Z,31.40
2019-02-03T07:15:44.379Z,29.77
2019-02-03T07:18:37.990Z,28.85
2019-02-03T07:21:28.189Z,29.32
2019-02-03T07:24:18.298Z,27.85
2019-02-03T07:27:08.477Z,28.12
2019-02-03T07:29:58.851Z,27.02
2019-02-03T07:32:50.454Z,29.70
2019-02-03T07:35:41.079Z,30.05
2019-02-03T07:38:31.224Z,30.57
2019-02-03T07:41:21.061Z,28.73
2019-02-03T07:44:11.311Z,32.20
2019-02-03T07:47:01.943Z,25.17
2019-02-03T07:49:52.827Z,26.85
2019-02-03T07:52:44.114Z,27.52
2019-02-03T07:55:34.580Z,27.52
2019-02-03T07:58:25.920Z,19.65
2019-02-03T08:01:15.898Z,24.85
2019-02-03T08:04:06.521Z,24.20
2019-02-03T08:06:56.883Z,28.30
2019-02-03T08:09:47.211Z,22.98
2019-02-03T08:12:37.849Z,26.30
2019-02-03T08:15:27.895Z,21.23
2019-02-03T08:18:18.000Z,24.85
2019-02-03T08:21:08.796Z,21.87
2019-02-03T08:23:59.629Z,21.10
2019-02-03T08:26:50.486Z,28.42
2019-02-03T08:29:40.909Z,21.55
2019-02-03T08:32:31.272Z,24.90
2019-02-03T08:35:21.843Z,24.05
2019-02-03T08:38:12.312Z,19.75
2019-02-03T08:41:02.959Z,21.70
2019-02-03T08:43:53.317Z,19.27
2019-02-03T08:46:45.231Z,18.85
2019-02-03T08:49:34.647Z,21.17
2019-02-03T08:52:24.866Z,21.27
2019-02-03T08:55:14.846Z,19.12
2019-02-03T08:58:04.581Z,20.60
2019-02-03T09:00:54.619Z,19.87
2019-02-03T09:03:44.589Z,15.85
2019-02-03T09:06:34.741Z,15.08
2019-02-03T09:09:24.583Z,14.98
2019-02-03T09:12:15.918Z,18.75
2019-02-03T09:15:06.941Z,18.05
2019-02-03T09:17:56.648Z,14.33
2019-02-03T09:20:48.320Z,13.75
2019-02-03T09:23:38.201Z,14.98
2019-02-03T09:26:28.182Z,17.87
2019-02-03T09:29:18.858Z,14.43
2019-02-03T09:32:11.259Z,15.70
2019-02-03T09:35:00.983Z,19.37
2019-02-03T09:37:51.501Z,13.72
2019-02-03T09:40:41.868Z,12.73
2019-02-03T09:43:32.560Z,14.83
2019-02-03T09:46:22.739Z,11.65
2019-02-03T09:49:12.581Z,11.08
2019-02-03T09:52:02.398Z,14.38
2019-02-03T09:54:52.141Z,16.57
2019-02-03T09:57:41.979Z,17.20
2019-02-03T10:00:33.531Z,11.63
2019-02-03T10:03:23.481Z,18.12
2019-02-03T10:06:13.703Z,12.98
2019-02-03T10:09:04.937Z,11.88
2019-02-03T10:11:56.243Z,10.15
2019-02-03T10:14:46.501Z,12.55
2019-02-03T10:17:36.412Z,12.40
2019-02-03T10:20:26.460Z,13.53
2019-02-03T10:23:16.339Z,10.88
2019-02-03T10:26:06.424Z,15.13
2019-02-03T10:28:56.554Z,14.63
2019-02-03T10:31:46.277Z,17.48
2019-02-03T10:34:36.177Z,8.20
2019-02-03T10:37:26.270Z,24.60
2019-02-03T10:40:18.591Z,12.95
2019-02-03T10:43:08.900Z,33.05
2019-02-03T10:45:59.078Z,12.07
2019-02-03T10:48:48.968Z,11.00
2019-02-03T10:51:39.059Z,14.65
2019-02-03T10:54:29.358Z,8.50
2019-02-03T10:57:19.218Z,9.68
2019-02-03T11:00:18.063Z,13.78
2019-02-03T11:03:04.328Z,9.28
2019-02-03T11:05:55.905Z,11.75
2019-02-03T11:08:47.043Z,11.55
2019-02-03T11:11:37.127Z,8.60
2019-02-03T11:14:27.130Z,8.65
2019-02-03T11:17:17.087Z,10.40
2019-02-03T11:20:09.105Z,8.45
2019-02-03T11:22:59.101Z,8.53
2019-02-03T11:25:49.017Z,12.28
2019-02-03T11:28:39.010Z,9.95
2019-02-03T11:31:29.177Z,8.30
2019-02-03T11:34:19.148Z,10.38
2019-02-03T11:37:10.812Z,10.93
2019-02-03T11:40:01.457Z,10.75
2019-02-03T11:42:52.377Z,8.23
2019-02-03T11:45:44.091Z,9.68
2019-02-03T11:48:35.108Z,8.73
2019-02-03T11:51:25.610Z,8.80
2019-02-03T11:54:18.331Z,10.03
2019-02-03T11:57:08.462Z,8.55
2019-02-03T11:59:59.433Z,9.30
2019-02-03T12:02:49.581Z,8.18
2019-02-03T12:05:41.250Z,8.18
2019-02-03T12:08:31.244Z,9.38
2019-02-03T12:11:21.372Z,9.10
2019-02-03T12:14:11.268Z,8.03
2019-02-03T12:17:01.528Z,8.68
2019-02-03T12:19:51.703Z,10.13
2019-02-03T12:22:41.378Z,7.10
2019-02-03T12:25:33.536Z,7.40
2019-02-03T12:28:24.339Z,8.80
2019-02-03T12:31:14.278Z,9.33
2019-02-03T12:34:04.697Z,8.80
2019-02-03T12:36:54.268Z,7.75
2019-02-03T12:39:46.310Z,6.85
2019-02-03T12:42:37.056Z,6.58
2019-02-03T12:45:27.010Z,8.90
2019-02-03T12:48:43.200Z,8.93
2019-02-03T12:51:34.269Z,11.80
2019-02-03T12:54:24.733Z,9.63
2019-02-03T12:57:15.427Z,8.30
2019-02-03T13:00:14.334Z,9.75
2019-02-03T13:03:04.963Z,6.67
2019-02-03T13:05:55.311Z,7.53
2019-02-03T13:08:47.941Z,7.25
2019-02-03T13:11:38.052Z,9.25
2019-02-03T13:14:30.390Z,10.00
2019-02-03T13:17:20.436Z,8.53
2019-02-03T13:20:12.722Z,7.72
2019-02-03T13:23:02.754Z,8.75
2019-02-03T13:25:52.745Z,7.35
2019-02-03T13:28:42.750Z,8.95
2019-02-03T13:31:32.547Z,6.70
2019-02-03T13:34:22.931Z,6.30
2019-02-03T13:37:12.999Z,7.58
2019-02-03T13:40:02.680Z,7.22
2019-02-03T13:42:52.659Z,9.45
2019-02-03T13:45:44.983Z,10.95
2019-02-03T13:48:34.401Z,8.25
2019-02-03T13:54:21.859Z,7.25
2019-02-03T13:57:10.991Z,9.70
2019-02-03T14:00:00.035Z,11.20
2019-02-03T14:02:49.255Z,8.85
2019-02-03T14:05:38.691Z,11.48
2019-02-03T14:08:27.971Z,10.03
2019-02-03T14:11:17.184Z,8.98
2019-02-03T14:14:06.283Z,10.80
2019-02-03T14:16:55.414Z,8.73
2019-02-03T14:19:44.588Z,12.03
2019-02-03T14:22:33.751Z,9.03
2019-02-03T14:25:23.089Z,11.28
2019-02-03T14:28:12.643Z,8.63
2019-02-03T14:31:03.646Z,11.38
2019-02-03T14:33:54.777Z,8.90
2019-02-03T14:36:44.025Z,12.03
2019-02-03T14:39:34.027Z,10.82
2019-02-03T14:42:23.629Z,12.33
2019-02-03T14:45:15.714Z,15.05
2019-02-03T14:48:06.418Z,50.25
2019-02-03T14:50:56.639Z,11.73
2019-02-03T14:53:46.356Z,12.60
2019-02-03T14:56:36.282Z,9.80
2019-02-03T14:59:25.930Z,12.20
2019-02-03T15:02:15.560Z,11.40
2019-02-03T15:05:07.367Z,10.63
2019-02-03T15:07:57.592Z,10.43
2019-02-03T15:10:46.895Z,13.05
2019-02-03T15:13:36.623Z,10.72
2019-02-03T15:16:27.087Z,9.98
2019-02-03T15:19:16.432Z,12.25
2019-02-03T15:22:06.166Z,13.15
2019-02-03T15:24:55.969Z,13.65
2019-02-03T15:27:45.409Z,13.83
2019-02-03T15:30:35.660Z,15.43
2019-02-03T15:33:25.281Z,10.25
2019-02-03T15:36:14.586Z,22.10
2019-02-03T15:39:05.752Z,12.13
2019-02-03T15:41:56.953Z,11.08
2019-02-03T15:44:46.834Z,10.32
2019-02-03T15:47:36.415Z,12.03
2019-02-03T15:50:26.871Z,11.40
2019-02-03T15:53:16.944Z,14.50
2019-02-03T15:56:06.163Z,13.35
2019-02-03T15:58:55.523Z,11.40
2019-02-03T16:01:47.512Z,13.13
2019-02-03T16:04:37.919Z,12.13
2019-02-03T16:07:27.301Z,17.50
2019-02-03T16:10:19.549Z,32.93
2019-02-03T16:13:08.799Z,12.55
2019-02-03T16:15:57.972Z,17.65
2019-02-03T16:18:47.535Z,13.88
2019-02-03T16:21:37.685Z,14.95
2019-02-03T16:24:27.166Z,12.07
2019-02-03T16:27:16.657Z,13.28
2019-02-03T16:30:08.235Z,13.00
2019-02-03T16:32:57.865Z,12.80
2019-02-03T16:35:47.118Z,13.43
2019-02-03T16:38:36.476Z,12.90
2019-02-03T16:41:26.688Z,31.17
2019-02-03T16:44:16.112Z,26.62
2019-02-03T16:47:06.158Z,28.62
2019-02-03T16:49:55.590Z,29.45
2019-02-03T16:52:45.248Z,21.15
2019-02-03T16:55:34.527Z,18.52
2019-02-03T16:58:23.927Z,18.15
2019-02-03T17:01:13.388Z,19.37
2019-02-03T17:04:02.479Z,15.30
2019-02-03T17:06:52.891Z,14.87
2019-02-03T17:09:42.727Z,13.72
2019-02-03T17:12:32.808Z,12.93
2019-02-03T17:15:31.148Z,11.60
2019-02-03T17:18:21.043Z,28.07
2019-02-03T17:21:10.259Z,31.25
2019-02-03T17:24:03.658Z,15.53
2019-02-03T17:26:54.466Z,34.45
2019-02-03T17:29:44.519Z,9.28
2019-02-03T17:32:34.355Z,12.75
2019-02-03T17:35:25.732Z,8.28
2019-02-03T17:38:15.982Z,10.23
2019-02-03T17:41:06.169Z,8.23
2019-02-03T17:43:56.005Z,11.85
2019-02-03T17:46:45.572Z,11.57
2019-02-03T17:49:35.763Z,14.98
2019-02-03T17:52:25.509Z,7.53
2019-02-03T17:55:16.843Z,10.13
2019-02-03T17:58:07.468Z,6.58
2019-02-03T18:01:06.692Z,17.27
2019-02-03T18:03:57.241Z,6.25
2019-02-03T18:06:47.240Z,10.03
2019-02-03T18:09:37.507Z,7.60
2019-02-03T18:12:29.907Z,7.83
2019-02-03T18:15:20.052Z,10.85
2019-02-03T18:18:10.532Z,5.50
2019-02-03T18:21:00.765Z,7.08
2019-02-03T18:23:50.887Z,12.25
2019-02-03T18:26:40.884Z,10.45
2019-02-03T18:29:30.742Z,6.80
2019-02-03T18:32:21.137Z,9.00
2019-02-03T18:35:11.015Z,6.65
2019-02-03T18:38:03.708Z,6.33
2019-02-03T18:40:53.682Z,5.35
2019-02-03T18:43:44.080Z,6.70
2019-02-03T18:46:33.662Z,5.40
2019-02-03T18:49:23.656Z,4.30
2019-02-03T18:52:13.683Z,5.10
2019-02-03T18:55:04.213Z,9.93
2019-02-03T18:57:55.530Z,5.50
2019-02-03T19:00:45.496Z,5.37
2019-02-03T19:03:35.452Z,8.08
2019-02-03T19:06:25.426Z,5.97
2019-02-03T19:09:15.232Z,4.20
2019-02-03T19:12:05.104Z,5.17
2019-02-03T19:14:54.987Z,6.08
2019-02-03T19:17:44.786Z,8.35
2019-02-03T19:20:36.203Z,4.95
2019-02-03T19:23:25.964Z,5.00
2019-02-03T19:26:16.058Z,6.55
2019-02-03T19:29:06.406Z,8.58
2019-02-03T19:31:56.444Z,12.75
2019-02-03T19:34:46.551Z,7.08
2019-02-03T19:37:36.428Z,10.90
2019-02-03T19:40:28.131Z,7.87
2019-02-03T19:43:17.942Z,12.98
2019-02-03T19:46:08.032Z,13.68
2019-02-03T19:48:58.825Z,13.08
2019-02-03T19:51:48.844Z,16.95
2019-02-03T19:54:38.615Z,12.35
2019-02-03T19:57:28.457Z,13.00
2019-02-03T20:00:26.672Z,17.42
2019-02-03T20:03:16.406Z,23.77
2019-02-03T20:06:06.214Z,16.55
2019-02-03T20:08:55.964Z,12.03
2019-02-03T20:11:46.079Z,11.78
2019-02-03T20:14:35.872Z,12.88
2019-02-03T20:17:25.941Z,12.13
2019-02-03T20:20:17.794Z,9.68
2019-02-03T20:23:08.107Z,11.60
2019-02-03T20:25:58.505Z,10.93
2019-02-03T20:28:48.266Z,12.20
2019-02-03T20:31:37.918Z,8.65
2019-02-03T20:34:27.806Z,8.00
2019-02-03T20:37:18.350Z,8.23
2019-02-03T20:40:09.937Z,11.90
2019-02-03T20:42:59.813Z,13.72
2019-02-03T20:45:50.112Z,8.23
2019-02-03T20:48:40.375Z,9.45
2019-02-03T20:51:30.515Z,5.10
2019-02-03T20:54:20.171Z,11.25
2019-02-03T20:57:10.052Z,6.58
2019-02-03T20:59:59.775Z,8.35
2019-02-03T21:02:49.393Z,8.30
2019-02-03T21:05:39.071Z,8.35
2019-02-03T21:08:29.273Z,15.45
2019-02-03T21:11:21.096Z,8.75
2019-02-03T21:14:11.217Z,11.53
2019-02-03T21:17:01.299Z,6.87
2019-02-03T21:19:51.147Z,9.23
2019-02-03T21:22:42.866Z,8.33
2019-02-03T21:25:33.065Z,11.35
2019-02-03T21:28:23.216Z,5.70
2019-02-03T21:31:14.445Z,10.70
2019-02-03T21:34:04.363Z,15.88
2019-02-03T21:36:54.105Z,5.45
2019-02-03T21:39:44.043Z,8.23
2019-02-03T21:42:33.955Z,6.35
2019-02-03T21:45:24.092Z,6.42
2019-02-03T21:48:14.486Z,8.80
2019-02-03T21:51:04.525Z,11.55
2019-02-03T21:53:55.205Z,7.10
2019-02-03T21:56:44.527Z,10.53
2019-02-03T21:59:34.412Z,10.88
2019-02-03T22:02:24.492Z,11.75
2019-02-03T22:05:14.252Z,11.90
2019-02-03T22:08:04.287Z,8.93
2019-02-03T22:10:54.276Z,12.60
2019-02-03T22:13:44.165Z,15.25
2019-02-03T22:16:34.265Z,4.37
2019-02-03T22:19:24.066Z,5.70
2019-02-03T22:22:14.953Z,7.33
2019-02-03T22:25:05.218Z,11.15
2019-02-03T22:27:57.562Z,6.70
2019-02-03T22:30:48.558Z,8.33
2019-02-03T22:33:38.485Z,5.62
2019-02-03T22:36:28.163Z,11.12
2019-02-03T22:39:18.274Z,6.83
2019-02-03T22:42:08.107Z,7.87
2019-02-03T22:44:58.356Z,3.95
2019-02-03T22:47:48.262Z,13.35
2019-02-03T22:50:39.452Z,12.33
2019-02-03T22:53:29.587Z,10.80
2019-02-03T22:56:20.557Z,7.92
2019-02-03T22:59:10.352Z,6.75
2019-02-03T23:02:00.236Z,7.95
2019-02-03T23:04:49.828Z,5.22
2019-02-03T23:07:39.995Z,6.97
2019-02-03T23:10:30.698Z,7.47
2019-02-03T23:13:20.605Z,11.43
2019-02-03T23:16:18.277Z,7.75
2019-02-03T23:19:03.592Z,7.30
2019-02-03T23:21:53.886Z,12.82
2019-02-03T23:24:43.872Z,5.67
2019-02-03T23:27:33.887Z,6.90
2019-02-03T23:30:23.449Z,7.15
2019-02-03T23:33:13.611Z,4.70
2019-02-03T23:36:03.628Z,6.25
2019-02-03T23:38:53.422Z,6.50
2019-02-03T23:41:43.302Z,10.90
2019-02-03T23:44:33.303Z,6.80
2019-02-03T23:47:23.564Z,9.28
2019-02-03T23:50:14.377Z,6.20
2019-02-03T23:53:04.575Z,6.50
2019-02-03T23:55:54.296Z,6.25
2019-02-03T23:58:44.452Z,8.53
